createdAt,value
2023-02-08T00:02:09.452Z,75.34
2023-02-08T00:04:36.541Z,74.82
2023-02-08T00:07:04.314Z,75.55
2023-02-08T00:09:31.465Z,75.41
2023-02-08T00:11:58.630Z,75.52
2023-02-08T00:14:25.840Z,75.10
2023-02-08T00:16:52.993Z,75.36
2023-02-08T00:19:20.228Z,75.09
2023-02-08T00:21:47.790Z,75.32
2023-02-08T00:24:14.958Z,75.50
2023-02-08T00:26:42.108Z,75.34
2023-02-08T00:29:09.259Z,75.32
2023-02-08T00:31:36.668Z,75.50
2023-02-08T00:34:03.919Z,75.64
2023-02-08T00:36:31.030Z,75.95
2023-02-08T00:38:58.179Z,75.59
2023-02-08T00:41:25.388Z,75.93
2023-02-08T00:43:52.550Z,76.02
2023-02-08T00:46:20.599Z,75.69
2023-02-08T00:48:47.845Z,75.84
2023-02-08T00:51:15.293Z,76.08
2023-02-08T00:53:44.570Z,75.78
2023-02-08T00:56:13.708Z,75.77
2023-02-08T00:58:41.624Z,76.01
2023-02-08T01:01:09.432Z,75.99
2023-02-08T01:03:37.893Z,75.51
2023-02-08T01:06:07.796Z,75.59
2023-02-08T01:08:34.970Z,75.67
2023-02-08T01:11:04.916Z,75.55
2023-02-08T01:13:32.079Z,75.87
2023-02-08T01:16:10.248Z,75.90
2023-02-08T01:18:38.719Z,75.96
2023-02-08T01:21:08.607Z,75.77
2023-02-08T01:23:36.290Z,75.93
2023-02-08T01:26:04.561Z,75.91
2023-02-08T01:28:31.830Z,75.84
2023-02-08T01:30:59.350Z,76.19
2023-02-08T01:33:26.508Z,75.59
2023-02-08T01:35:53.801Z,75.69
2023-02-08T01:38:21.105Z,75.58
2023-02-08T01:40:48.304Z,75.93
2023-02-08T01:43:26.197Z,75.71
2023-02-08T01:45:54.004Z,75.73
2023-02-08T01:48:25.784Z,75.91
2023-02-08T01:51:09.753Z,76.42
2023-02-08T01:53:37.215Z,76.22
2023-02-08T01:56:07.163Z,76.26
2023-02-08T01:58:36.681Z,76.51
2023-02-08T02:01:05.407Z,76.19
2023-02-08T02:03:34.216Z,76.52
2023-02-08T02:06:04.838Z,76.46
2023-02-08T02:08:32.115Z,76.85
2023-02-08T02:10:59.321Z,77.24
2023-02-08T02:13:27.415Z,76.99
2023-02-08T02:15:55.013Z,76.95
2023-02-08T02:18:25.603Z,76.66
2023-02-08T02:21:16.945Z,76.86
2023-02-08T02:24:05.732Z,76.65
2023-02-08T02:26:50.906Z,76.51
2023-02-08T02:29:23.834Z,76.53
2023-02-08T02:32:12.507Z,76.51
2023-02-08T02:34:47.590Z,76.93
2023-02-08T02:37:49.563Z,76.78
2023-02-08T02:40:43.109Z,76.90
2023-02-08T02:43:48.842Z,77.13
2023-02-08T02:46:24.378Z,77.01
2023-02-08T02:48:54.597Z,76.90
2023-02-08T02:51:27.397Z,77.41
2023-02-08T02:54:06.898Z,77.46
2023-02-08T02:56:37.400Z,77.73
2023-02-08T02:59:06.932Z,77.78
2023-02-08T03:01:35.123Z,77.86
2023-02-08T03:04:16.753Z,77.43
2023-02-08T03:06:59.121Z,77.29
2023-02-08T03:09:35.299Z,77.42
2023-02-08T03:12:05.500Z,77.28
2023-02-08T03:14:51.916Z,76.88
2023-02-08T03:17:28.114Z,76.83
2023-02-08T03:19:57.970Z,76.80
2023-02-08T03:22:44.432Z,76.90
2023-02-08T03:25:21.636Z,77.11
2023-02-08T03:28:07.636Z,76.89
2023-02-08T03:30:45.251Z,77.54
2023-02-08T03:33:34.931Z,77.59
2023-02-08T03:36:05.248Z,77.81
2023-02-08T03:38:36.688Z,77.66
2023-02-08T03:41:07.071Z,77.90
2023-02-08T03:43:37.844Z,77.91
2023-02-08T03:46:25.938Z,78.17
2023-02-08T03:49:03.288Z,77.99
2023-02-08T03:51:31.251Z,78.24
2023-02-08T03:54:01.532Z,78.17
2023-02-08T03:57:03.663Z,78.39
2023-02-08T03:59:37.349Z,78.44
2023-02-08T04:02:07.436Z,78.57
2023-02-08T04:04:37.112Z,78.35
2023-02-08T04:07:05.108Z,78.26
2023-02-08T04:09:32.252Z,78.21
2023-02-08T04:11:59.434Z,78.18
2023-02-08T04:14:26.586Z,77.89
2023-02-08T04:16:53.768Z,77.99
2023-02-08T04:19:20.952Z,77.84
2023-02-08T04:21:48.199Z,77.69
2023-02-08T04:24:15.410Z,77.63
2023-02-08T04:26:42.574Z,77.79
2023-02-08T04:29:09.744Z,77.61
2023-02-08T04:31:37.031Z,77.54
2023-02-08T04:34:04.476Z,77.36
2023-02-08T04:36:31.721Z,77.39
2023-02-08T04:38:58.901Z,77.40
2023-02-08T04:41:26.097Z,77.21
2023-02-08T04:43:53.400Z,77.31
2023-02-08T04:46:20.703Z,77.08
2023-02-08T04:48:47.937Z,77.15
2023-02-08T04:51:15.140Z,77.27
2023-02-08T04:53:42.328Z,77.35
2023-02-08T04:56:09.484Z,77.15
2023-02-08T04:58:36.788Z,77.53
2023-02-08T05:01:07.992Z,77.25
2023-02-08T05:03:35.683Z,77.36
2023-02-08T05:06:03.193Z,77.55
2023-02-08T05:08:30.622Z,77.49
2023-02-08T05:10:58.022Z,77.82
2023-02-08T05:13:25.814Z,77.94
2023-02-08T05:15:52.987Z,77.69
2023-02-08T05:18:20.141Z,77.57
2023-02-08T05:20:57.733Z,77.76
2023-02-08T05:23:25.551Z,78.12
2023-02-08T05:25:53.084Z,77.83
2023-02-08T05:28:20.356Z,77.53
2023-02-08T05:30:47.877Z,77.63
2023-02-08T05:33:15.205Z,77.77
2023-02-08T05:35:42.521Z,77.48
2023-02-08T05:38:09.655Z,77.46
2023-02-08T05:40:36.904Z,77.58
2023-02-08T05:43:04.043Z,77.57
2023-02-08T05:45:31.166Z,77.41
2023-02-08T05:47:58.551Z,77.44
2023-02-08T05:50:25.741Z,77.19
2023-02-08T05:52:52.929Z,76.81
2023-02-08T05:55:20.176Z,77.34
2023-02-08T05:57:47.293Z,76.93
2023-02-08T06:00:15.117Z,77.24
2023-02-08T06:02:42.310Z,77.49
2023-02-08T06:05:09.425Z,77.27
2023-02-08T06:07:36.676Z,77.66
2023-02-08T06:10:04.235Z,77.34
2023-02-08T06:12:31.363Z,77.44
2023-02-08T06:14:58.551Z,77.49
2023-02-08T06:17:25.684Z,77.92
2023-02-08T06:19:52.903Z,77.72
2023-02-08T06:22:20.113Z,77.80
2023-02-08T06:24:48.614Z,77.53
2023-02-08T06:27:15.769Z,77.77
2023-02-08T06:29:42.934Z,77.98
2023-02-08T06:32:10.213Z,77.49
2023-02-08T06:34:37.460Z,78.07
2023-02-08T06:37:05.576Z,77.99
2023-02-08T06:39:32.882Z,78.39
2023-02-08T06:42:00.119Z,78.37
2023-02-08T06:44:27.371Z,78.61
2023-02-08T06:46:54.592Z,78.08
2023-02-08T06:49:21.831Z,78.63
2023-02-08T06:51:49.587Z,78.88
2023-02-08T06:54:16.770Z,78.23
2023-02-08T06:56:44.420Z,78.10
2023-02-08T06:59:11.785Z,77.96
2023-02-08T07:01:39.110Z,78.18
2023-02-08T07:04:06.234Z,77.79
2023-02-08T07:06:33.769Z,77.77
2023-02-08T07:09:02.573Z,77.81
2023-02-08T07:11:29.825Z,77.70
2023-02-08T07:13:57.027Z,77.59
2023-02-08T07:16:24.608Z,77.80
2023-02-08T07:18:51.773Z,77.25
2023-02-08T07:21:19.105Z,77.70
2023-02-08T07:23:46.217Z,77.40
2023-02-08T07:26:17.211Z,77.62
2023-02-08T07:28:44.429Z,77.84
2023-02-08T07:31:17.107Z,77.89
2023-02-08T07:33:44.648Z,77.56
2023-02-08T07:36:11.946Z,78.15
2023-02-08T07:38:39.398Z,78.37
2023-02-08T07:41:09.736Z,77.77
2023-02-08T07:46:25.123Z,77.92
2023-02-08T07:48:53.450Z,78.19
2023-02-08T07:51:20.634Z,77.58
2023-02-08T07:53:47.837Z,77.84
2023-02-08T07:56:15.034Z,78.39
2023-02-08T07:58:42.205Z,78.31
2023-02-08T08:01:21.340Z,77.97
2023-02-08T08:03:50.949Z,78.15
2023-02-08T08:06:21.807Z,78.13
2023-02-08T08:08:49.131Z,77.91
2023-02-08T08:11:17.495Z,78.18
2023-02-08T08:13:44.796Z,77.86
2023-02-08T08:16:11.988Z,77.54
2023-02-08T08:18:39.117Z,77.23
2023-02-08T08:21:06.602Z,77.35
2023-02-08T08:23:33.852Z,77.25
2023-02-08T08:26:01.061Z,77.02
2023-02-08T08:28:28.272Z,76.90
2023-02-08T08:30:57.503Z,77.02
2023-02-08T08:33:24.712Z,77.45
2023-02-08T08:35:51.939Z,76.96
2023-02-08T08:38:19.046Z,76.90
2023-02-08T08:40:46.230Z,76.88
2023-02-08T08:43:13.386Z,76.78
2023-02-08T08:45:40.548Z,76.98
2023-02-08T08:48:07.704Z,76.85
2023-02-08T08:50:34.826Z,76.73
2023-02-08T08:53:01.952Z,76.99
2023-02-08T08:55:29.171Z,76.62
2023-02-08T08:57:56.430Z,76.41
2023-02-08T09:00:23.578Z,76.24
2023-02-08T09:02:50.695Z,76.15
2023-02-08T09:05:17.886Z,76.45
2023-02-08T09:07:45.030Z,76.32
2023-02-08T09:10:12.258Z,76.07
2023-02-08T09:12:39.471Z,76.35
2023-02-08T09:15:06.922Z,76.23
2023-02-08T09:17:34.065Z,75.72
2023-02-08T09:20:02.310Z,76.18
2023-02-08T09:22:30.410Z,75.69
2023-02-08T09:24:57.614Z,75.96
2023-02-08T09:27:24.737Z,75.89
2023-02-08T09:29:51.845Z,75.66
2023-02-08T09:32:21.116Z,75.43
2023-02-08T09:34:48.272Z,74.71
2023-02-08T09:37:17.306Z,75.17
2023-02-08T09:39:44.784Z,74.77
2023-02-08T09:42:12.859Z,73.83
2023-02-08T09:44:47.934Z,73.21
2023-02-08T09:47:29.267Z,74.27
2023-02-08T09:50:05.161Z,74.04
2023-02-08T09:52:40.938Z,73.33
2023-02-08T09:55:15.737Z,73.68
2023-02-08T09:57:43.666Z,73.64
2023-02-08T10:00:16.768Z,73.46
2023-02-08T10:02:44.469Z,72.96
2023-02-08T10:05:20.660Z,73.73
2023-02-08T10:07:47.890Z,72.16
2023-02-08T10:10:42.511Z,72.55
2023-02-08T10:13:41.645Z,72.64
2023-02-08T10:16:36.896Z,71.67
2023-02-08T10:19:19.333Z,71.33
2023-02-08T10:22:01.413Z,71.28
2023-02-08T10:25:00.870Z,71.28
2023-02-08T10:27:53.994Z,70.70
2023-02-08T10:30:41.634Z,70.09
2023-02-08T10:33:32.424Z,69.88
2023-02-08T10:35:59.655Z,70.19
2023-02-08T10:38:45.468Z,69.32
2023-02-08T10:41:19.650Z,69.46
2023-02-08T10:43:53.910Z,69.11
2023-02-08T10:46:29.965Z,69.12
2023-02-08T10:49:00.018Z,70.46
2023-02-08T10:51:28.541Z,69.22
2023-02-08T10:53:55.865Z,68.79
2023-02-08T10:56:39.102Z,68.69
2023-02-08T10:59:22.120Z,67.99
2023-02-08T11:01:49.950Z,68.20
2023-02-08T11:04:18.002Z,68.15
2023-02-08T11:06:46.599Z,68.58
2023-02-08T11:09:30.712Z,68.07
2023-02-08T11:11:59.846Z,66.67
2023-02-08T11:14:45.638Z,65.47
2023-02-08T11:17:31.794Z,64.75
2023-02-08T11:19:59.498Z,63.22
2023-02-08T11:22:28.164Z,62.08
2023-02-08T11:25:00.104Z,62.26
2023-02-08T11:27:31.812Z,61.77
2023-02-08T11:30:13.994Z,61.63
2023-02-08T11:32:42.390Z,62.03
2023-02-08T11:35:21.906Z,61.88
2023-02-08T11:37:57.387Z,61.39
2023-02-08T11:40:30.085Z,60.79
2023-02-08T11:42:57.695Z,60.74
2023-02-08T11:45:29.820Z,60.53
2023-02-08T11:47:57.153Z,60.51
2023-02-08T11:50:27.710Z,58.53
2023-02-08T11:53:03.102Z,58.09
2023-02-08T11:55:33.028Z,58.13
2023-02-08T11:58:23.671Z,57.75
2023-02-08T12:01:03.659Z,57.19
2023-02-08T12:03:34.819Z,56.28
2023-02-08T12:06:18.813Z,56.27
2023-02-08T12:09:13.392Z,56.46
2023-02-08T12:11:45.584Z,56.86
2023-02-08T12:14:27.346Z,55.93
2023-02-08T12:17:20.118Z,54.50
2023-02-08T12:20:08.769Z,50.61
2023-02-08T12:23:05.261Z,51.77
2023-02-08T12:25:46.261Z,48.32
2023-02-08T12:28:42.454Z,45.12
2023-02-08T12:31:18.416Z,46.94
2023-02-08T12:34:05.079Z,46.17
2023-02-08T12:36:37.806Z,45.49
2023-02-08T12:39:58.120Z,47.50
2023-02-08T12:43:07.255Z,44.67
2023-02-08T12:45:41.254Z,42.93
2023-02-08T12:49:05.952Z,42.24
2023-02-08T12:51:44.789Z,42.40
2023-02-08T12:54:26.739Z,42.10
2023-02-08T12:57:02.031Z,41.42
2023-02-08T12:59:43.774Z,41.84
2023-02-08T13:02:31.162Z,40.09
2023-02-08T13:05:01.957Z,40.68
2023-02-08T13:07:42.516Z,42.59
2023-02-08T13:10:29.793Z,42.74
2023-02-08T13:12:59.800Z,41.53
2023-02-08T13:15:36.503Z,43.23
2023-02-08T13:18:20.593Z,43.19
2023-02-08T13:20:51.831Z,41.08
2023-02-08T13:23:26.407Z,42.00
2023-02-08T13:25:56.662Z,40.96
2023-02-08T13:28:25.505Z,41.94
2023-02-08T13:30:54.754Z,42.37
2023-02-08T13:33:30.260Z,43.71
2023-02-08T13:35:57.928Z,41.94
2023-02-08T13:38:35.671Z,38.93
2023-02-08T13:41:22.675Z,40.95
2023-02-08T13:43:53.654Z,41.87
2023-02-08T13:46:22.531Z,39.89
2023-02-08T13:48:56.623Z,42.75
2023-02-08T13:51:30.940Z,38.30
2023-02-08T13:53:58.086Z,38.79
2023-02-08T13:56:37.374Z,40.47
2023-02-08T13:59:10.152Z,40.49
2023-02-08T14:01:37.420Z,41.33
2023-02-08T14:04:07.748Z,40.64
2023-02-08T14:07:01.875Z,40.62
2023-02-08T14:09:49.271Z,41.17
2023-02-08T14:12:21.886Z,41.16
2023-02-08T14:15:28.011Z,44.76
2023-02-08T14:17:58.338Z,42.32
2023-02-08T14:20:34.013Z,44.50
2023-02-08T14:23:03.950Z,44.81
2023-02-08T14:25:39.752Z,46.01
2023-02-08T14:28:08.412Z,46.33
2023-02-08T14:30:37.778Z,44.05
2023-02-08T14:33:04.852Z,44.55
2023-02-08T14:35:34.156Z,43.65
2023-02-08T14:38:23.967Z,44.37
2023-02-08T14:41:00.912Z,44.67
2023-02-08T14:43:42.410Z,44.65
2023-02-08T14:46:37.433Z,45.69
2023-02-08T14:49:16.893Z,46.32
2023-02-08T14:52:04.438Z,45.50
2023-02-08T14:54:44.948Z,47.92
2023-02-08T14:57:29.389Z,46.34
2023-02-08T14:59:59.953Z,47.24
2023-02-08T15:02:31.617Z,46.81
2023-02-08T15:04:59.716Z,46.55
2023-02-08T15:07:38.592Z,47.48
2023-02-08T15:10:11.257Z,45.98
2023-02-08T15:12:40.723Z,46.27
2023-02-08T15:15:23.030Z,45.54
2023-02-08T15:17:51.884Z,48.31
2023-02-08T15:20:24.415Z,46.75
2023-02-08T15:23:18.301Z,47.99
2023-02-08T15:25:55.129Z,47.79
2023-02-08T15:28:25.012Z,49.02
2023-02-08T15:30:56.097Z,49.77
2023-02-08T15:33:23.319Z,51.23
2023-02-08T15:36:17.866Z,49.24
2023-02-08T15:38:46.405Z,50.81
2023-02-08T15:41:16.649Z,52.78
2023-02-08T15:43:43.833Z,51.62
2023-02-08T15:46:23.620Z,50.98
2023-02-08T15:48:51.490Z,52.75
2023-02-08T15:51:22.930Z,52.01
2023-02-08T15:53:55.191Z,53.82
2023-02-08T15:56:36.327Z,53.49
2023-02-08T15:59:05.765Z,52.65
2023-02-08T16:01:33.318Z,53.23
2023-02-08T16:04:06.016Z,54.09
2023-02-08T16:06:38.993Z,54.90
2023-02-08T16:09:06.791Z,56.11
2023-02-08T16:11:35.718Z,56.43
2023-02-08T16:14:04.493Z,56.12
2023-02-08T16:16:42.259Z,56.50
2023-02-08T16:19:32.165Z,56.72
2023-02-08T16:22:21.001Z,56.93
2023-02-08T16:24:50.780Z,57.27
2023-02-08T16:27:18.002Z,56.15
2023-02-08T16:29:46.588Z,55.86
2023-02-08T16:32:32.191Z,55.17
2023-02-08T16:35:01.399Z,55.34
2023-02-08T16:37:31.489Z,56.46
2023-02-08T16:40:27.668Z,55.93
2023-02-08T16:43:15.564Z,56.69
2023-02-08T16:45:42.780Z,58.48
2023-02-08T16:48:33.259Z,57.64
2023-02-08T16:51:01.496Z,58.16
2023-02-08T16:53:41.333Z,58.77
2023-02-08T16:56:11.477Z,58.47
2023-02-08T16:58:38.996Z,57.74
2023-02-08T17:01:06.976Z,59.63
2023-02-08T17:03:36.579Z,59.88
2023-02-08T17:06:04.027Z,58.78
2023-02-08T17:08:32.996Z,59.08
2023-02-08T17:11:00.361Z,59.38
2023-02-08T17:13:27.655Z,58.84
2023-02-08T17:15:55.005Z,59.21
2023-02-08T17:18:22.727Z,60.54
2023-02-08T17:20:50.781Z,59.78
2023-02-08T17:23:18.209Z,59.60
2023-02-08T17:25:45.914Z,59.55
2023-02-08T17:28:20.211Z,60.09
2023-02-08T17:30:48.770Z,60.60
2023-02-08T17:33:18.978Z,61.28
2023-02-08T17:35:48.271Z,60.64
2023-02-08T17:38:16.219Z,60.80
2023-02-08T17:40:43.882Z,60.94
2023-02-08T17:43:11.903Z,60.78
2023-02-08T17:45:40.245Z,61.14
2023-02-08T17:48:08.016Z,61.62
2023-02-08T17:50:35.651Z,60.98
2023-02-08T17:53:03.921Z,62.08
2023-02-08T17:55:31.321Z,62.32
2023-02-08T17:57:58.554Z,61.34
2023-02-08T18:00:26.134Z,62.47
2023-02-08T18:02:55.289Z,61.78
2023-02-08T18:05:25.117Z,61.56
2023-02-08T18:07:53.549Z,61.92
2023-02-08T18:10:21.230Z,62.38
2023-02-08T18:12:48.693Z,62.04
2023-02-08T18:15:19.904Z,62.31
2023-02-08T18:17:47.833Z,62.65
2023-02-08T18:20:16.195Z,63.49
2023-02-08T18:22:43.941Z,63.44
2023-02-08T18:25:12.419Z,63.05
2023-02-08T18:27:40.228Z,63.22
2023-02-08T18:30:09.500Z,62.93
2023-02-08T18:32:36.790Z,62.94
2023-02-08T18:35:05.013Z,63.60
2023-02-08T18:37:32.373Z,63.17
2023-02-08T18:40:00.243Z,63.09
2023-02-08T18:42:27.600Z,63.73
2023-02-08T18:44:54.734Z,64.08
2023-02-08T18:47:22.624Z,64.24
2023-02-08T18:49:57.392Z,64.19
2023-02-08T18:52:24.653Z,64.78
2023-02-08T18:54:52.106Z,64.80
2023-02-08T18:57:19.609Z,64.45
2023-02-08T18:59:46.836Z,64.01
2023-02-08T19:02:20.730Z,64.39
2023-02-08T19:04:47.991Z,64.03
2023-02-08T19:07:15.219Z,65.34
2023-02-08T19:09:43.829Z,65.36
2023-02-08T19:12:15.148Z,65.93
2023-02-08T19:14:43.614Z,65.85
2023-02-08T19:17:12.409Z,65.27
2023-02-08T19:19:41.698Z,65.22
2023-02-08T19:22:08.830Z,66.08
2023-02-08T19:24:35.986Z,65.92
2023-02-08T19:27:03.253Z,66.25
2023-02-08T19:29:32.574Z,66.48
2023-02-08T19:31:59.850Z,66.08
2023-02-08T19:34:26.966Z,66.80
2023-02-08T19:36:54.634Z,67.27
2023-02-08T19:39:24.472Z,66.87
2023-02-08T19:41:52.902Z,67.19
2023-02-08T19:44:21.057Z,67.47
2023-02-08T19:46:50.055Z,67.22
2023-02-08T19:49:17.488Z,67.24
2023-02-08T19:51:44.722Z,67.33
2023-02-08T19:54:14.228Z,67.00
2023-02-08T19:56:41.954Z,67.17
2023-02-08T19:59:18.210Z,67.66
2023-02-08T20:01:46.155Z,67.82
2023-02-08T20:04:14.237Z,67.73
2023-02-08T20:06:42.794Z,67.85
2023-02-08T20:09:10.030Z,67.75
2023-02-08T20:11:51.204Z,67.70
2023-02-08T20:14:23.472Z,67.80
2023-02-08T20:16:50.590Z,68.16
2023-02-08T20:19:17.923Z,67.58
2023-02-08T20:21:45.523Z,68.30
2023-02-08T20:24:13.026Z,68.30
2023-02-08T20:26:42.234Z,68.71
2023-02-08T20:29:10.345Z,68.48
2023-02-08T20:31:39.192Z,68.76
2023-02-08T20:34:07.723Z,68.32
2023-02-08T20:36:44.141Z,68.59
2023-02-08T20:39:15.114Z,68.20
2023-02-08T20:41:45.757Z,68.33
2023-02-08T20:44:14.654Z,68.48
2023-02-08T20:46:43.002Z,68.01
2023-02-08T20:49:13.738Z,68.81
2023-02-08T20:51:41.040Z,68.97
2023-02-08T20:54:08.451Z,68.98
2023-02-08T20:56:36.102Z,68.66
2023-02-08T20:59:16.075Z,69.35
2023-02-08T21:01:44.577Z,69.08
2023-02-08T21:04:13.107Z,69.25
2023-02-08T21:06:44.303Z,69.16
2023-02-08T21:09:14.381Z,69.15
2023-02-08T21:11:41.564Z,69.01
2023-02-08T21:14:09.169Z,69.24
2023-02-08T21:16:36.431Z,69.19
2023-02-08T21:19:03.964Z,68.92
2023-02-08T21:21:31.287Z,68.99
2023-02-08T21:23:58.847Z,68.71
2023-02-08T21:26:26.624Z,69.09
2023-02-08T21:28:55.361Z,69.45
2023-02-08T21:31:23.993Z,69.26
2023-02-08T21:33:51.768Z,69.51
2023-02-08T21:36:21.511Z,69.42
2023-02-08T21:38:48.717Z,69.13
2023-02-08T21:41:20.351Z,69.13
2023-02-08T21:43:48.624Z,69.55
2023-02-08T21:46:16.845Z,69.16
2023-02-08T21:49:03.289Z,69.43
2023-02-08T21:51:49.630Z,69.22
2023-02-08T21:54:37.171Z,69.86
2023-02-08T21:57:08.743Z,69.62
2023-02-08T21:59:37.257Z,70.05
2023-02-08T22:02:05.845Z,70.23
2023-02-08T22:04:36.410Z,69.63
2023-02-08T22:07:04.707Z,70.22
2023-02-08T22:09:31.972Z,70.16
2023-02-08T22:11:59.247Z,69.52
2023-02-08T22:14:26.455Z,69.46
2023-02-08T22:16:53.650Z,69.37
2023-02-08T22:19:20.882Z,69.70
2023-02-08T22:21:48.118Z,69.90
2023-02-08T22:24:15.302Z,69.98
2023-02-08T22:26:43.881Z,69.93
2023-02-08T22:29:11.072Z,69.85
2023-02-08T22:31:38.316Z,69.76
2023-02-08T22:34:05.607Z,69.83
2023-02-08T22:36:32.759Z,69.34
2023-02-08T22:39:00.008Z,69.31
2023-02-08T22:41:27.307Z,69.36
2023-02-08T22:43:54.517Z,69.55
2023-02-08T22:46:21.770Z,69.81
2023-02-08T22:48:49.108Z,70.18
2023-02-08T22:51:18.635Z,69.47
2023-02-08T22:53:46.138Z,69.52
2023-02-08T22:56:14.877Z,69.31
2023-02-08T22:58:42.272Z,69.57
2023-02-08T23:01:14.990Z,69.46
2023-02-08T23:03:42.952Z,70.31
2023-02-08T23:06:15.142Z,70.17
2023-02-08T23:08:42.714Z,70.53
2023-02-08T23:11:36.382Z,70.38
2023-02-08T23:14:27.809Z,70.13
2023-02-08T23:21:51.040Z,70.40
2023-02-08T23:24:18.469Z,70.19
2023-02-08T23:26:45.650Z,70.13
2023-02-08T23:29:12.764Z,70.27
2023-02-08T23:31:40.835Z,70.58
2023-02-08T23:34:08.043Z,70.29
2023-02-08T23:36:35.218Z,70.38
2023-02-08T23:39:03.367Z,70.49
2023-02-08T23:41:30.586Z,70.48
2023-02-08T23:43:57.849Z,70.91
2023-02-08T23:46:27.560Z,70.52
2023-02-08T23:48:55.345Z,70.14
2023-02-08T23:51:24.418Z,70.47
2023-02-08T23:53:52.357Z,70.28
2023-02-08T23:56:25.024Z,69.88
2023-02-08T23:58:54.646Z,70.12
